Station info - map view · info · telemetry · weather · raw · status · beacons · messages · bulletins · browse · moving · my account
Callsign, ship name or locator: Clear       
It is possible to search using wildcards (*?) after a prefix. Example: OH*
APRS station IW2LGC-9 - show graphs
Map loading...
Comment: IW2LGC Operatore Luigi. QTH Milano. Radio Yaesu FTM 400
Mic-E message: En route
Location: 43°46.52' N 11°09.88' E - locator JN53NS96SB - show map - static map
1.9 miles Northwest bearing 321° from Scandicci, Provincia di Firenze, Tuscany, Italy [?]
4.3 miles West bearing 278° from Florence, Provincia di Firenze, Tuscany, Italy
50.4 miles South bearing 190° from Bologna, Provincia di Bologna, Emilia-Romagna, Italy
Last position: 2019-02-09 13:58:33 EST (8d 2h43m ago)
2019-02-09 19:58:33 CET local time at Scandicci, Italy [?]
Altitude: 98 ft
Course:
Speed: 27 MPH
Device: Yaesu: FTM-400DR (rig)
Last path: IW2LGC-9>TS4V52 via WIDE1,qAS,IR5X (good)
Positions stored: 5634
Other SSIDs: IW2LGC IW2LGC-1 IW2LGC-7 IW2LGC-L IW2LGC-Y
Stations near current position of IW2LGC-9 - show more
callsign distance last heard - EST      callsign distance last heard - EST
IK5ZUN-90.9 miles 290°2019-02-17 10:05:45 PS-IR5AG1.7 miles 151°2019-02-17 16:05:22
IW5BMS2.1 miles 129°2019-01-27 18:04:59 IW5BMS-32.1 miles 129°2019-01-27 18:05:57
IW5EIA-DP2.2 miles 98°2019-02-17 12:44:56 IK5XVV-92.4 miles 131°2019-02-17 06:14:14
IW5EIA-92.4 miles 76°2019-02-10 05:08:12 IU5FFN-43.0 miles 8°2019-02-13 09:34:58
IZ5TIG3.2 miles 339°2019-02-04 12:26:44 IZ5TIG B3.3 miles 339°2019-02-07 18:02:20
IZ5TIG-B3.3 miles 339°2019-02-07 18:02:30 IU5ATN-Y3.5 miles 282°2019-02-06 18:42:46
IU5ATN-73.5 miles 282°2019-02-06 18:42:47 FW27683.7 miles 330°2019-01-31 15:47:23
IU5JPC-54.0 miles 64°2019-02-15 03:28:35 IR5UBN-34.1 miles 184°2019-02-17 16:28:17
IR5UBN4.1 miles 184°2019-02-16 11:39:12 IR5UBN-A4.2 miles 184°2019-02-17 16:35:40
IR5UBN-B4.2 miles 184°2019-02-17 16:35:40 IR5UBN A4.2 miles 184°2019-02-17 16:35:40
Stations which heard IW2LGC-9 directly on radio –
callsign pkts first heard - EST last heard longest (tx => rx) longest at - EST
IR5X 11 2019-02-09 09:09:39 2019-02-09 13:49:11 JN53NU > JN53GS 31.4 miles 255° 2019-02-09 09:09:39
IR2AO 2 2019-02-09 04:25:43 2019-02-09 04:50:42 JN45RG > JN45PM 18.7 miles 342° 2019-02-09 04:50:42
IR2UBX-11 1 2019-02-09 04:33:04 2019-02-09 04:33:04 JN45NJ > JN45MQ 20.7 miles 347° 2019-02-09 04:33:04
IK3XTM 1 2019-02-09 05:29:06 2019-02-09 05:29:06 JN54EU > JN55LP 61.9 miles 28° 2019-02-09 05:29:06
IR2BZ 24 2019-02-09 04:19:57 2019-02-09 05:19:57 JN54BV > JN45XO 48.6 miles 352° 2019-02-09 05:19:57
IZ4UFQ-10 3 2019-02-09 06:04:10 2019-02-09 06:09:02 JN54PK > JN54QL 6.1 miles 40° 2019-02-09 06:09:02
IW2HUZ-11 1 2019-02-09 04:35:26 2019-02-09 04:35:26 JN45NJ > JN45MU 33.0 miles 354° 2019-02-09 04:35:26
IR2UGB 1 2019-02-09 04:36:01 2019-02-09 04:36:01 JN45NJ > JN45IC 30.1 miles 230° 2019-02-09 04:36:01
IR4BA 2 2019-02-09 06:08:26 2019-02-09 06:15:38 JN54PK > JN54NF 17.1 miles 212° 2019-02-09 06:08:26
IW2GOB-2 3 2019-02-09 04:51:54 2019-02-09 04:55:46 JN45SE > JN45SH 7.4 miles 347° 2019-02-09 04:55:46
IR1DM 1 2019-02-09 04:41:27 2019-02-09 04:41:27 JN45PJ > JN44JS 49.2 miles 209° 2019-02-09 04:41:27
IR2S 36 2019-02-09 04:19:57 2019-02-09 05:55:45 JN54MN > JN55DQ 84.2 miles 335° 2019-02-09 05:55:45
IR2CW 1 2019-02-09 04:36:01 2019-02-09 04:36:01 JN45NJ > JN45NE 15.3 miles 178° 2019-02-09 04:36:01
IR2BW 1 2019-02-09 04:53:05 2019-02-09 04:53:05 JN45SF > JN55DN 44.2 miles 58° 2019-02-09 04:53:05
IK2ILW 1 2019-02-09 04:38:25 2019-02-09 04:38:25 JN45OJ > JN45VV 45.5 miles 40° 2019-02-09 04:38:25
IR5AS-11 1 2019-02-09 06:37:50 2019-02-09 06:37:50 JN53OW > JN54NC 11.4 miles 343° 2019-02-09 06:37:50
IW5CBL-15 4 2019-02-09 05:18:06 2019-02-09 05:33:51 JN54FS > JN44WL 37.1 miles 234° 2019-02-09 05:33:51
IR2UFW 15 2019-02-09 04:11:16 2019-02-09 04:41:26 JN45PJ > JN45LI 13.0 miles 268° 2019-02-09 04:41:26
IQ4SC 36 2019-02-09 05:19:57 2019-02-09 06:02:58 JN54BV > JN54IO 35.0 miles 125° 2019-02-09 05:19:57
IR2BY 3 2019-02-09 04:40:13 2019-02-09 04:49:57 JN45OJ > JN55BQ 46.8 miles 62° 2019-02-09 04:40:13
IR4UCI-11 7 2019-02-09 05:45:30 2019-02-09 06:07:50 JN54JQ > JN54MM 16.6 miles 134° 2019-02-09 05:45:30
IQ3VO 13 2019-02-09 04:46:17 2019-02-09 05:58:10 JN45QH > JN55MQ 85.8 miles 73° 2019-02-09 04:46:17
IR2UGD 6 2019-02-09 04:31:50 2019-02-09 04:46:19 JN45NJ > JN45PJ 7.5 miles 94° 2019-02-09 04:31:50
IR2DQ 1 2019-02-09 05:13:19 2019-02-09 05:13:19 JN44XW > JN55AD 15.3 miles 14° 2019-02-09 05:13:19
IZ1TMF 1 2019-02-09 04:48:45 2019-02-09 04:48:45 JN45QH > JN35PA 105.9 miles 261° 2019-02-09 04:48:45
IZ4GJM-11 8 2019-02-09 05:46:09 2019-02-09 06:09:05 JN54PK > JN54MO 15.6 miles 319° 2019-02-09 06:09:05
IR2AL 14 2019-02-09 04:11:17 2019-02-09 04:45:06 JN45PI > JN45OL 11.8 miles 329° 2019-02-09 04:45:06
IW2GOB-12 8 2019-02-09 04:40:20 2019-02-09 04:55:01 JN45OJ > JN45SH 15.0 miles 113° 2019-02-09 04:40:20
IZ2DDY 10 2019-02-09 04:39:13 2019-02-09 04:55:09 JN45OJ > JN45SH 15.7 miles 111° 2019-02-09 04:39:13
IQ2DK 2 2019-02-09 04:36:01 2019-02-09 05:04:13 JN45UB > JN44MX 34.9 miles 261° 2019-02-09 05:04:13
IR2BP 15 2019-02-09 04:38:25 2019-02-09 05:29:37 JN45OJ > JN55DN 54.3 miles 78° 2019-02-09 04:38:25

Only position packets which were originated by the station are shown here. The range statistics show some extra long hops, because some digipeaters do not correctly add themselves to the digipeater path. Please check the raw packets.
About this site
This page shows real-time information collected from the Automatic Position Reporting System Internet network (APRS-IS). APRS is used by amateur (ham) radio operators to transmit real-time position information, weather data, telemetry and messages over the radio. A vehicle equipped with a GPS receiver, a VHF transmitter or HF transceiver and a small computer device called a tracker transmits it's location, speed and course in a small data packet, which is then received by a nearby iGate receiving site which forwards the packet on the Internet. Systems connected to the Internet can send information on the APRS-IS without a radio transmitter, or collect and display information transmitted anywhere in the world.
FAQ · Blog · Discussion group · Linking to aprs.fi · AIS sites · Service status · Database statistics · Advertising on aprs.fi · Technical details · API · Change log · Planned changes · Credits and thanks · Terms Of Service · iPhone/iPad APRS